Time,TemperatureF,DewpointF,PressureIn,WindDirection,WindDirectionDegrees,WindSpeedMPH,WindSpeedGustMPH,Humidity,HourlyPrecipIn,Conditions,Clouds,dailyrainin,SoftwareType,DateUTC
2013-02-04 00:01:00,12.8,6.4,30.29,North,360,4.0,6.0,75,0.00,,,0.00,Wunderground v.1.15,2013-02-04 05:01:00,
2013-02-04 00:11:00,12.7,6.3,31.27,North,360,4.0,4.0,75,0.00,,,0.00,Wunderground v.1.15,2013-02-04 05:11:00,
2013-02-04 00:16:00,12.5,6.1,30.29,North,360,3.0,4.0,75,0.00,,,0.00,Wunderground v.1.15,2013-02-04 05:16:00,
2013-02-04 00:21:00,12.5,6.4,31.27,North,360,3.0,3.0,76,0.00,,,0.00,Wunderground v.1.15,2013-02-04 05:21:00,
2013-02-04 00:26:00,12.4,6.3,31.27,North,360,3.0,3.0,76,0.00,,,0.00,Wunderground v.1.15,2013-02-04 05:26:00,
2013-02-04 00:31:00,12.3,6.2,31.27,North,360,2.0,2.0,76,0.00,,,0.00,Wunderground v.1.15,2013-02-04 05:31:00,
2013-02-04 00:36:00,12.1,6.0,31.27,North,360,2.0,2.0,76,0.00,,,0.00,Wunderground v.1.15,2013-02-04 05:36:00,
2013-02-04 00:41:00,11.7,5.6,31.66,North,360,2.0,2.0,76,0.00,,,0.00,Wunderground v.1.15,2013-02-04 05:41:00,
2013-02-04 00:46:00,11.3,5.5,30.29,North,360,2.0,2.0,77,0.00,,,0.00,Wunderground v.1.15,2013-02-04 05:46:00,
2013-02-04 00:51:00,11.3,5.8,30.29,North,360,2.0,2.0,78,0.00,,,0.00,Wunderground v.1.15,2013-02-04 05:51:00,
2013-02-04 00:56:00,10.9,5.4,30.29,North,360,2.0,2.0,78,0.00,,,0.00,Wunderground v.1.15,2013-02-04 05:56:00,
2013-02-04 01:01:00,10.8,5.3,30.29,North,360,3.0,3.0,78,0.00,,,0.00,Wunderground v.1.15,2013-02-04 06:01:00,
2013-02-04 01:06:00,10.8,5.6,30.29,North,360,3.0,4.0,79,0.00,,,0.00,Wunderground v.1.15,2013-02-04 06:06:00,
2013-02-04 01:11:00,11.0,5.8,30.29,North,360,3.0,3.0,79,0.00,,,0.00,Wunderground v.1.15,2013-02-04 06:11:00,
2013-02-04 01:16:00,10.9,5.7,30.29,North,360,3.0,4.0,79,0.00,,,0.00,Wunderground v.1.15,2013-02-04 06:16:00,
2013-02-04 01:21:00,11.2,6.0,30.29,North,360,4.0,5.0,79,0.00,,,0.00,Wunderground v.1.15,2013-02-04 06:21:00,
2013-02-04 01:31:00,11.3,6.1,30.29,North,360,3.0,4.0,79,0.00,,,0.00,Wunderground v.1.15,2013-02-04 06:31:00,
2013-02-04 01:36:00,11.3,6.1,30.29,North,360,3.0,4.0,79,0.00,,,0.00,Wunderground v.1.15,2013-02-04 06:36:00,
2013-02-04 01:41:00,11.2,6.0,30.29,North,360,3.0,6.0,79,0.00,,,0.00,Wunderground v.1.15,2013-02-04 06:41:00,
2013-02-04 01:46:00,11.5,6.2,30.29,North,360,3.0,6.0,79,0.00,,,0.00,Wunderground v.1.15,2013-02-04 06:46:00,
2013-02-04 01:51:00,11.5,6.2,30.29,North,360,4.0,4.0,79,0.00,,,0.00,Wunderground v.1.15,2013-02-04 06:51:00,
2013-02-04 02:01:00,12.0,6.5,30.29,North,360,4.0,4.0,78,0.00,,,0.00,Wunderground v.1.15,2013-02-04 07:01:00,
2013-02-04 02:06:00,11.9,6.1,30.29,North,360,4.0,4.0,77,0.00,,,0.00,Wunderground v.1.15,2013-02-04 07:06:00,
2013-02-04 02:11:00,11.8,6.0,30.29,North,360,4.0,4.0,77,0.00,,,0.00,Wunderground v.1.15,2013-02-04 07:11:00,
2013-02-04 02:16:00,11.5,5.7,30.29,North,360,3.0,4.0,77,0.00,,,0.00,Wunderground v.1.15,2013-02-04 07:16:00,
2013-02-04 02:21:00,11.4,5.6,30.29,North,360,2.0,2.0,77,0.00,,,0.00,Wunderground v.1.15,2013-02-04 07:21:00,
2013-02-04 02:26:00,11.0,5.5,30.29,North,360,2.0,3.0,78,0.00,,,0.00,Wunderground v.1.15,2013-02-04 07:26:00,
2013-02-04 02:36:00,10.7,5.5,30.29,North,360,2.0,4.0,79,0.00,,,0.00,Wunderground v.1.15,2013-02-04 07:36:00,
2013-02-04 02:41:00,10.7,5.5,30.29,North,360,2.0,2.0,79,0.00,,,0.00,Wunderground v.1.15,2013-02-04 07:41:00,
2013-02-04 02:46:00,10.9,5.7,30.29,North,360,1.0,2.0,79,0.00,,,0.00,Wunderground v.1.15,2013-02-04 07:46:00,
2013-02-04 02:51:00,10.7,5.2,30.28,North,360,1.0,2.0,78,0.00,,,0.00,Wunderground v.1.15,2013-02-04 07:51:00,
2013-02-04 02:56:00,10.0,4.2,30.28,North,360,2.0,3.0,77,0.00,,,0.00,Wunderground v.1.15,2013-02-04 07:56:00,
2013-02-04 03:06:00,11.0,5.8,30.28,North,360,3.0,4.0,79,0.00,,,0.00,Wunderground v.1.15,2013-02-04 08:06:00,
2013-02-04 03:11:00,11.3,5.8,30.28,North,360,3.0,3.0,78,0.00,,,0.00,Wunderground v.1.15,2013-02-04 08:11:00,
2013-02-04 03:16:00,11.3,5.5,30.28,North,360,2.0,3.0,77,0.00,,,0.00,Wunderground v.1.15,2013-02-04 08:16:00,
2013-02-04 03:21:00,11.3,5.8,30.28,North,360,1.0,1.0,78,0.00,,,0.00,Wunderground v.1.15,2013-02-04 08:21:00,
2013-02-04 03:26:00,10.6,5.1,30.28,North,360,2.0,2.0,78,0.00,,,0.00,Wunderground v.1.15,2013-02-04 08:26:00,
2013-02-04 03:31:00,10.9,5.7,30.28,North,360,2.0,2.0,79,0.00,,,0.00,Wunderground v.1.15,2013-02-04 08:31:00,
2013-02-04 03:41:00,11.3,5.8,30.28,North,360,2.0,2.0,78,0.00,,,0.00,Wunderground v.1.15,2013-02-04 08:41:00,
2013-02-04 03:46:00,11.4,6.2,30.28,North,360,1.0,2.0,79,0.00,,,0.00,Wunderground v.1.15,2013-02-04 08:46:00,
2013-02-04 03:51:00,11.0,5.5,30.28,North,360,1.0,3.0,78,0.00,,,0.00,Wunderground v.1.15,2013-02-04 08:51:00,
2013-02-04 03:56:00,11.2,6.2,30.28,North,360,2.0,3.0,80,0.00,,,0.00,Wunderground v.1.15,2013-02-04 08:56:00,
2013-02-04 04:01:00,11.5,6.2,30.28,North,360,2.0,2.0,79,0.00,,,0.00,Wunderground v.1.15,2013-02-04 09:01:00,
2013-02-04 04:06:00,11.6,6.6,30.28,North,360,2.0,2.0,80,0.00,,,0.00,Wunderground v.1.15,2013-02-04 09:06:00,
2013-02-04 04:11:00,11.9,6.9,30.28,North,360,1.0,1.0,80,0.00,,,0.00,Wunderground v.1.15,2013-02-04 09:11:00,
2013-02-04 04:21:00,12.2,7.2,30.28,North,360,0.0,0.0,80,0.00,,,0.00,Wunderground v.1.15,2013-02-04 09:21:00,
2013-02-04 04:26:00,12.2,7.2,30.28,North,360,0.0,0.0,80,0.00,,,0.00,Wunderground v.1.15,2013-02-04 09:26:00,
2013-02-04 04:31:00,12.2,7.2,30.28,North,360,0.0,0.0,80,0.00,,,0.00,Wunderground v.1.15,2013-02-04 09:31:00,
2013-02-04 04:36:00,11.3,6.1,30.28,North,360,0.0,0.0,79,0.00,,,0.00,Wunderground v.1.15,2013-02-04 09:36:00,
2013-02-04 04:41:00,11.2,6.5,30.28,North,360,0.0,0.0,81,0.00,,,0.00,Wunderground v.1.15,2013-02-04 09:41:00,
2013-02-04 04:46:00,11.3,6.6,30.28,North,360,0.0,1.0,81,0.00,,,0.00,Wunderground v.1.15,2013-02-04 09:46:00,
2013-02-04 04:51:00,11.4,7.0,30.28,North,360,0.0,0.0,82,0.00,,,0.00,Wunderground v.1.15,2013-02-04 09:51:00,
2013-02-04 04:56:00,11.6,7.2,30.28,North,360,0.0,0.0,82,0.00,,,0.00,Wunderground v.1.15,2013-02-04 09:56:00,
2013-02-04 05:01:00,11.3,6.9,30.28,North,360,0.0,0.0,82,0.00,,,0.00,Wunderground v.1.15,2013-02-04 10:01:00,
2013-02-04 05:06:00,11.5,7.3,30.28,North,360,0.0,0.0,83,0.00,,,0.00,Wunderground v.1.15,2013-02-04 10:06:00,
2013-02-04 05:16:00,11.4,7.2,30.28,North,360,0.0,0.0,83,0.00,,,0.00,Wunderground v.1.15,2013-02-04 10:16:00,
2013-02-04 05:21:00,11.1,6.9,30.28,North,360,0.0,0.0,83,0.00,,,0.00,Wunderground v.1.15,2013-02-04 10:21:00,
2013-02-04 05:26:00,10.9,6.8,30.28,North,360,0.0,0.0,83,0.00,,,0.00,Wunderground v.1.15,2013-02-04 10:26:00,
2013-02-04 05:31:00,10.7,6.6,30.28,North,360,0.0,0.0,83,0.00,,,0.00,Wunderground v.1.15,2013-02-04 10:31:00,
2013-02-04 05:36:00,10.6,6.7,30.28,North,360,0.0,0.0,84,0.00,,,0.00,Wunderground v.1.15,2013-02-04 10:36:00,
2013-02-04 05:46:00,10.6,6.7,30.28,North,360,0.0,1.0,84,0.00,,,0.00,Wunderground v.1.15,2013-02-04 10:46:00,
2013-02-04 05:51:00,10.7,6.8,30.28,North,360,0.0,0.0,84,0.00,,,0.00,Wunderground v.1.15,2013-02-04 10:51:00,
2013-02-04 05:56:00,10.8,7.2,30.28,North,360,0.0,0.0,85,0.00,,,0.00,Wunderground v.1.15,2013-02-04 10:56:00,
2013-02-04 06:01:00,10.8,7.2,30.28,North,360,0.0,0.0,85,0.00,,,0.00,Wunderground v.1.15,2013-02-04 11:01:00,
2013-02-04 06:06:00,10.8,7.2,30.28,North,360,0.0,0.0,85,0.00,,,0.00,Wunderground v.1.15,2013-02-04 11:06:00,
2013-02-04 06:11:00,10.8,7.2,30.28,North,360,0.0,0.0,85,0.00,,,0.00,Wunderground v.1.15,2013-02-04 11:11:00,
2013-02-04 06:21:00,10.8,7.2,30.28,North,360,0.0,0.0,85,0.00,,,0.00,Wunderground v.1.15,2013-02-04 11:21:00,
2013-02-04 06:26:00,10.8,7.2,30.28,North,360,0.0,0.0,85,0.00,,,0.00,Wunderground v.1.15,2013-02-04 11:26:00,
2013-02-04 06:31:00,11.0,7.4,30.28,North,360,0.0,0.0,85,0.00,,,0.00,Wunderground v.1.15,2013-02-04 11:31:00,
2013-02-04 06:36:00,11.2,7.8,30.28,North,360,0.0,0.0,86,0.00,,,0.00,Wunderground v.1.15,2013-02-04 11:36:00,
2013-02-04 06:41:00,11.4,8.0,30.28,North,360,0.0,0.0,86,0.00,,,0.00,Wunderground v.1.15,2013-02-04 11:41:00,
2013-02-04 06:51:00,11.7,8.3,30.28,North,360,0.0,0.0,86,0.00,,,0.00,Wunderground v.1.15,2013-02-04 11:51:00,
2013-02-04 06:56:00,11.9,8.5,30.28,North,360,0.0,0.0,86,0.00,,,0.00,Wunderground v.1.15,2013-02-04 11:56:00,
2013-02-04 07:01:00,12.0,8.6,30.28,North,360,0.0,0.0,86,0.00,,,0.00,Wunderground v.1.15,2013-02-04 12:01:00,
2013-02-04 07:06:00,12.2,8.8,30.28,North,360,0.0,0.0,86,0.00,,,0.00,Wunderground v.1.15,2013-02-04 12:06:00,
2013-02-04 07:11:00,12.2,8.8,30.28,North,360,0.0,0.0,86,0.00,,,0.00,Wunderground v.1.15,2013-02-04 12:11:00,
2013-02-04 07:16:00,12.2,8.8,30.28,North,360,0.0,0.0,86,0.00,,,0.00,Wunderground v.1.15,2013-02-04 12:16:00,
2013-02-04 07:26:00,12.5,9.1,30.28,North,360,0.0,0.0,86,0.00,,,0.00,Wunderground v.1.15,2013-02-04 12:26:00,
2013-02-04 07:31:00,13.0,9.9,30.28,North,360,0.0,0.0,87,0.00,,,0.00,Wunderground v.1.15,2013-02-04 12:31:00,
2013-02-04 07:36:00,13.2,10.1,30.28,North,360,0.0,0.0,87,0.00,,,0.00,Wunderground v.1.15,2013-02-04 12:36:00,
2013-02-04 07:41:00,13.4,10.3,30.28,North,360,0.0,0.0,87,0.00,,,0.00,Wunderground v.1.15,2013-02-04 12:41:00,
2013-02-04 07:46:00,13.5,10.4,30.28,North,360,0.0,0.0,87,0.00,,,0.00,Wunderground v.1.15,2013-02-04 12:46:00,
2013-02-04 07:51:00,13.5,10.4,30.28,North,360,0.0,0.0,87,0.00,,,0.00,Wunderground v.1.15,2013-02-04 12:51:00,
2013-02-04 07:56:00,13.6,10.5,30.28,North,360,0.0,0.0,87,0.00,,,0.00,Wunderground v.1.15,2013-02-04 12:56:00,
2013-02-04 08:01:00,13.7,10.5,30.28,North,360,0.0,0.0,87,0.00,,,0.00,Wunderground v.1.15,2013-02-04 13:01:00,
2013-02-04 08:06:00,13.8,10.6,30.28,North,360,0.0,0.0,87,0.00,,,0.00,Wunderground v.1.15,2013-02-04 13:06:00,
2013-02-04 08:11:00,13.8,10.6,23.11,North,360,0.0,0.0,87,0.00,,,0.00,Wunderground v.1.15,2013-02-04 13:11:00,
2013-02-04 08:16:00,14.0,10.8,23.11,North,360,0.0,0.0,87,0.00,,,0.00,Wunderground v.1.15,2013-02-04 13:16:00,
2013-02-04 08:21:00,14.1,10.9,23.11,North,360,0.0,0.0,87,0.00,,,0.00,Wunderground v.1.15,2013-02-04 13:21:00,
2013-02-04 08:26:00,14.2,10.8,23.11,North,360,0.0,0.0,86,0.00,,,0.00,Wunderground v.1.15,2013-02-04 13:26:00,
2013-02-04 08:31:00,14.3,10.9,23.11,North,360,0.0,0.0,86,0.00,,,0.00,Wunderground v.1.15,2013-02-04 13:31:00,
2013-02-04 08:36:00,14.4,11.2,23.11,North,360,0.0,0.0,87,0.00,,,0.00,Wunderground v.1.15,2013-02-04 13:36:00,
2013-02-04 08:41:00,14.4,11.2,23.11,North,360,0.0,0.0,87,0.00,,,0.00,Wunderground v.1.15,2013-02-04 13:41:00,
2013-02-04 08:46:00,14.7,11.3,23.11,North,360,0.0,0.0,86,0.00,,,0.00,Wunderground v.1.15,2013-02-04 13:46:00,
2013-02-04 08:56:00,15.0,11.6,28.24,North,360,1.0,2.0,86,0.00,,,0.00,Wunderground v.1.15,2013-02-04 13:56:00,
2013-02-04 09:01:00,15.2,11.8,28.24,North,360,1.0,1.0,86,0.00,,,0.00,Wunderground v.1.15,2013-02-04 14:01:00,
2013-02-04 09:06:00,15.3,11.9,28.24,North,360,1.0,1.0,86,0.00,,,0.00,Wunderground v.1.15,2013-02-04 14:06:00,
2013-02-04 09:11:00,15.4,11.7,28.24,North,360,0.0,2.0,85,0.00,,,0.00,Wunderground v.1.15,2013-02-04 14:11:00,
2013-02-04 09:16:00,15.4,11.7,28.24,North,360,1.0,3.0,85,0.00,,,0.00,Wunderground v.1.15,2013-02-04 14:16:00,
2013-02-04 09:21:00,15.5,11.8,26.58,North,360,1.0,1.0,85,0.00,,,0.00,Wunderground v.1.15,2013-02-04 14:21:00,
2013-02-04 09:31:00,15.7,12.0,26.58,North,360,1.0,1.0,85,0.00,,,0.00,Wunderground v.1.15,2013-02-04 14:31:00,
2013-02-04 09:36:00,15.8,12.1,26.58,North,360,0.0,1.0,85,0.00,,,0.00,Wunderground v.1.15,2013-02-04 14:36:00,
2013-02-04 09:41:00,15.8,12.1,26.58,North,360,0.0,0.0,85,0.00,,,0.00,Wunderground v.1.15,2013-02-04 14:41:00,
2013-02-04 09:46:00,15.9,12.2,26.58,North,360,0.0,0.0,85,0.00,,,0.00,Wunderground v.1.15,2013-02-04 14:46:00,
2013-02-04 09:51:00,16.0,12.3,26.58,North,360,0.0,0.0,85,0.00,,,0.00,Wunderground v.1.15,2013-02-04 14:51:00,
2013-02-04 09:56:00,16.1,12.4,23.44,North,360,0.0,0.0,85,0.00,,,0.00,Wunderground v.1.15,2013-02-04 14:56:00,
2013-02-04 10:06:00,16.7,13.0,23.44,North,360,0.0,0.0,85,0.00,,,0.00,Wunderground v.1.15,2013-02-04 15:06:00,
2013-02-04 10:11:00,16.5,12.8,23.44,North,360,0.0,0.0,85,0.00,,,0.00,Wunderground v.1.15,2013-02-04 15:11:00,
2013-02-04 10:16:00,16.7,13.0,30.27,North,360,0.0,0.0,85,0.00,,,0.00,Wunderground v.1.15,2013-02-04 15:16:00,
2013-02-04 10:21:00,17.0,13.3,30.27,North,360,0.0,0.0,85,0.00,,,0.00,Wunderground v.1.15,2013-02-04 15:21:00,
2013-02-04 10:26:00,17.0,13.0,30.27,North,360,0.0,0.0,84,0.00,,,0.00,Wunderground v.1.15,2013-02-04 15:26:00,
2013-02-04 10:36:00,17.3,13.3,30.27,North,360,0.0,0.0,84,0.00,,,0.00,Wunderground v.1.15,2013-02-04 15:36:00,
2013-02-04 10:41:00,17.1,12.8,31.65,North,360,0.0,0.0,83,0.00,,,0.00,Wunderground v.1.15,2013-02-04 15:41:00,
2013-02-04 10:46:00,17.2,12.9,30.27,North,360,0.0,0.0,83,0.00,,,0.00,Wunderground v.1.15,2013-02-04 15:46:00,
2013-02-04 10:51:00,17.5,13.2,30.27,North,360,0.0,0.0,83,0.00,,,0.00,Wunderground v.1.15,2013-02-04 15:51:00,
2013-02-04 10:56:00,17.7,13.4,30.27,North,360,0.0,0.0,83,0.00,,,0.00,Wunderground v.1.15,2013-02-04 15:56:00,
2013-02-04 11:01:00,18.0,13.7,30.27,North,360,0.0,1.0,83,0.00,,,0.00,Wunderground v.1.15,2013-02-04 16:01:00,
2013-02-04 11:11:00,18.8,14.5,30.27,North,360,0.0,0.0,83,0.00,,,0.00,Wunderground v.1.15,2013-02-04 16:11:00,
2013-02-04 11:16:00,19.0,14.4,30.27,North,360,0.0,0.0,82,0.00,,,0.00,Wunderground v.1.15,2013-02-04 16:16:00,
2013-02-04 11:21:00,19.1,14.5,30.27,North,360,0.0,0.0,82,0.00,,,0.00,Wunderground v.1.15,2013-02-04 16:21:00,
2013-02-04 11:26:00,19.2,14.3,30.27,North,360,0.0,0.0,81,0.00,,,0.00,Wunderground v.1.15,2013-02-04 16:26:00,
2013-02-04 11:31:00,18.9,13.7,30.27,North,360,0.0,0.0,80,0.00,,,0.00,Wunderground v.1.15,2013-02-04 16:31:00,
2013-02-04 11:41:00,19.1,14.2,30.27,North,360,0.0,0.0,81,0.00,,,0.00,Wunderground v.1.15,2013-02-04 16:41:00,
2013-02-04 11:46:00,18.8,13.7,30.96,North,360,0.0,0.0,80,0.00,,,0.00,Wunderground v.1.15,2013-02-04 16:46:00,
2013-02-04 11:51:00,18.7,13.6,30.96,North,360,0.0,0.0,80,0.00,,,0.00,Wunderground v.1.15,2013-02-04 16:51:00,
2013-02-04 11:56:00,18.6,13.5,30.27,North,360,0.0,1.0,80,0.00,,,0.00,Wunderground v.1.15,2013-02-04 16:56:00,
2013-02-04 12:01:00,18.7,13.6,31.41,North,360,1.0,1.0,80,0.00,,,0.00,Wunderground v.1.15,2013-02-04 17:01:00,
2013-02-04 12:06:00,18.7,13.6,31.41,North,360,1.0,1.0,80,0.00,,,0.00,Wunderground v.1.15,2013-02-04 17:06:00,
2013-02-04 12:11:00,19.1,13.9,30.27,North,360,0.0,2.0,80,0.00,,,0.00,Wunderground v.1.15,2013-02-04 17:11:00,
2013-02-04 12:16:00,18.7,13.3,30.27,North,360,1.0,2.0,79,0.00,,,0.00,Wunderground v.1.15,2013-02-04 17:16:00,
2013-02-04 12:21:00,18.8,13.7,30.27,North,360,2.0,2.0,80,0.00,,,0.00,Wunderground v.1.15,2013-02-04 17:21:00,
2013-02-04 12:26:00,19.1,14.2,30.27,North,360,1.0,2.0,81,0.00,,,0.00,Wunderground v.1.15,2013-02-04 17:26:00,
2013-02-04 12:31:00,19.0,13.8,30.27,North,360,1.0,1.0,80,0.00,,,0.00,Wunderground v.1.15,2013-02-04 17:31:00,
2013-02-04 12:36:00,19.4,16.7,30.27,North,360,1.0,1.0,89,0.00,,,0.00,Wunderground v.1.15,2013-02-04 17:36:00,
2013-02-04 12:46:00,20.6,15.7,30.27,North,360,0.0,0.0,81,0.00,,,0.00,Wunderground v.1.15,2013-02-04 17:46:00,
2013-02-04 12:51:00,21.1,15.9,20.68,North,360,0.0,0.0,80,0.00,,,0.00,Wunderground v.1.15,2013-02-04 17:51:00,
2013-02-04 12:56:00,21.2,15.7,20.68,North,360,0.0,0.0,79,0.00,,,0.00,Wunderground v.1.15,2013-02-04 17:56:00,
2013-02-04 13:01:00,20.9,15.1,31.54,North,360,1.0,1.0,78,0.00,,,0.00,Wunderground v.1.15,2013-02-04 18:01:00,
2013-02-04 13:06:00,20.5,14.7,20.68,North,360,1.0,1.0,78,0.00,,,0.00,Wunderground v.1.15,2013-02-04 18:06:00,
2013-02-04 13:16:00,20.2,14.1,20.68,North,360,0.0,2.0,77,0.00,,,0.00,Wunderground v.1.15,2013-02-04 18:16:00,
2013-02-04 13:21:00,19.9,13.9,20.68,North,360,0.0,0.0,77,0.00,,,0.00,Wunderground v.1.15,2013-02-04 18:21:00,
2013-02-04 13:26:00,19.9,13.9,20.68,North,360,0.0,0.0,77,0.00,,,0.00,Wunderground v.1.15,2013-02-04 18:26:00,
2013-02-04 13:31:00,20.3,14.5,20.68,North,360,1.0,2.0,78,0.00,,,0.00,Wunderground v.1.15,2013-02-04 18:31:00,
2013-02-04 13:36:00,20.8,15.3,20.68,North,360,1.0,2.0,79,0.00,,,0.00,Wunderground v.1.15,2013-02-04 18:36:00,
2013-02-04 13:41:00,21.0,15.5,20.68,North,360,1.0,1.0,79,0.00,,,0.00,Wunderground v.1.15,2013-02-04 18:41:00,
2013-02-04 13:51:00,21.4,16.2,20.68,North,360,2.0,2.0,80,0.00,,,0.00,Wunderground v.1.15,2013-02-04 18:51:00,
2013-02-04 13:56:00,21.3,16.1,20.68,North,360,2.0,2.0,80,0.00,,,0.00,Wunderground v.1.15,2013-02-04 18:56:00,
2013-02-04 14:01:00,21.3,15.8,20.68,North,360,1.0,1.0,79,0.00,,,0.00,Wunderground v.1.15,2013-02-04 19:01:00,
2013-02-04 14:06:00,21.3,15.8,20.68,North,360,1.0,1.0,79,0.00,,,0.00,Wunderground v.1.15,2013-02-04 19:06:00,
2013-02-04 14:11:00,21.3,16.1,23.41,North,360,2.0,2.0,80,0.00,,,0.00,Wunderground v.1.15,2013-02-04 19:11:00,
2013-02-04 14:21:00,21.3,16.1,23.41,North,360,2.0,3.0,80,0.00,,,0.00,Wunderground v.1.15,2013-02-04 19:21:00,
2013-02-04 14:26:00,21.4,16.2,23.41,North,360,2.0,3.0,80,0.00,,,0.00,Wunderground v.1.15,2013-02-04 19:26:00,
2013-02-04 14:31:00,21.7,16.8,23.41,North,360,2.0,3.0,81,0.00,,,0.00,Wunderground v.1.15,2013-02-04 19:31:00,
2013-02-04 14:36:00,21.7,16.5,20.68,North,360,2.0,3.0,80,0.00,,,0.00,Wunderground v.1.15,2013-02-04 19:36:00,
2013-02-04 14:41:00,22.0,16.8,20.68,North,360,1.0,2.0,80,0.00,,,0.00,Wunderground v.1.15,2013-02-04 19:41:00,
2013-02-04 14:46:00,21.8,16.3,31.54,North,360,1.0,2.0,79,0.00,,,0.00,Wunderground v.1.15,2013-02-04 19:46:00,
2013-02-04 14:56:00,21.1,15.0,20.68,North,360,0.0,2.0,77,0.00,,,0.00,Wunderground v.1.15,2013-02-04 19:56:00,
2013-02-04 15:01:00,20.9,14.8,20.68,North,360,1.0,1.0,77,0.00,,,0.00,Wunderground v.1.15,2013-02-04 20:01:00,
2013-02-04 15:06:00,21.2,15.7,20.68,North,360,0.0,1.0,79,0.00,,,0.00,Wunderground v.1.15,2013-02-04 20:06:00,
2013-02-04 15:11:00,21.6,16.1,31.54,North,360,0.0,0.0,79,0.00,,,0.00,Wunderground v.1.15,2013-02-04 20:11:00,
2013-02-04 15:16:00,21.8,16.0,31.54,North,360,0.0,1.0,78,0.00,,,0.00,Wunderground v.1.15,2013-02-04 20:16:00,
2013-02-04 15:21:00,22.1,16.6,31.54,North,360,0.0,0.0,79,0.00,,,0.00,Wunderground v.1.15,2013-02-04 20:21:00,
2013-02-04 15:26:00,22.2,16.7,20.68,North,360,1.0,1.0,79,0.00,,,0.00,Wunderground v.1.15,2013-02-04 20:26:00,
2013-02-04 15:31:00,22.1,16.6,20.68,North,360,1.0,1.0,79,0.00,,,0.00,Wunderground v.1.15,2013-02-04 20:31:00,
2013-02-04 15:36:00,22.2,16.7,20.68,North,360,0.0,1.0,79,0.00,,,0.00,Wunderground v.1.15,2013-02-04 20:36:00,
2013-02-04 15:41:00,22.3,16.8,20.68,North,360,1.0,1.0,79,0.00,,,0.00,Wunderground v.1.15,2013-02-04 20:41:00,
2013-02-04 15:46:00,22.4,17.2,31.53,North,360,1.0,2.0,80,0.00,,,0.00,Wunderground v.1.15,2013-02-04 20:46:00,
2013-02-04 15:56:00,22.4,17.2,20.68,North,360,1.0,2.0,80,0.00,,,0.00,Wunderground v.1.15,2013-02-04 20:56:00,
2013-02-04 16:01:00,22.3,16.8,20.68,North,360,1.0,1.0,79,0.00,,,0.00,Wunderground v.1.15,2013-02-04 21:01:00,
2013-02-04 16:06:00,22.1,16.6,31.53,North,360,1.0,1.0,79,0.00,,,0.00,Wunderground v.1.15,2013-02-04 21:06:00,
2013-02-04 16:11:00,22.0,16.5,20.68,North,360,1.0,1.0,79,0.00,,,0.00,Wunderground v.1.15,2013-02-04 21:11:00,
2013-02-04 16:16:00,22.1,16.9,20.68,North,360,1.0,1.0,80,0.00,,,0.00,Wunderground v.1.15,2013-02-04 21:16:00,
2013-02-04 16:21:00,22.0,16.5,20.68,North,360,1.0,1.0,79,0.00,,,0.00,Wunderground v.1.15,2013-02-04 21:21:00,
2013-02-04 16:31:00,22.1,16.9,20.68,North,360,1.0,1.0,80,0.00,,,0.00,Wunderground v.1.15,2013-02-04 21:31:00,
2013-02-04 16:36:00,22.1,16.9,20.68,North,360,0.0,1.0,80,0.00,,,0.00,Wunderground v.1.15,2013-02-04 21:36:00,
2013-02-04 16:41:00,22.0,16.5,20.68,North,360,0.0,0.0,79,0.00,,,0.00,Wunderground v.1.15,2013-02-04 21:41:00,
2013-02-04 16:46:00,21.9,16.4,20.68,North,360,0.0,0.0,79,0.00,,,0.00,Wunderground v.1.15,2013-02-04 21:46:00,
2013-02-04 16:51:00,21.7,16.2,20.68,North,360,0.0,1.0,79,0.00,,,0.00,Wunderground v.1.15,2013-02-04 21:51:00,
2013-02-04 17:01:00,21.6,16.1,20.68,North,360,0.0,0.0,79,0.00,,,0.00,Wunderground v.1.15,2013-02-04 22:01:00,
2013-02-04 17:06:00,21.7,16.2,20.68,North,360,0.0,0.0,79,0.00,,,0.00,Wunderground v.1.15,2013-02-04 22:06:00,
2013-02-04 17:11:00,21.7,16.5,20.68,North,360,0.0,0.0,80,0.00,,,0.00,Wunderground v.1.15,2013-02-04 22:11:00,
2013-02-04 17:16:00,21.6,16.4,31.53,North,360,0.0,1.0,80,0.00,,,0.00,Wunderground v.1.15,2013-02-04 22:16:00,
2013-02-04 17:21:00,21.6,16.4,31.53,North,360,1.0,1.0,80,0.00,,,0.00,Wunderground v.1.15,2013-02-04 22:21:00,
2013-02-04 17:26:00,21.6,16.4,31.53,North,360,0.0,1.0,80,0.00,,,0.00,Wunderground v.1.15,2013-02-04 22:26:00,
2013-02-04 17:36:00,21.5,16.6,31.53,North,360,0.0,0.0,81,0.00,,,0.00,Wunderground v.1.15,2013-02-04 22:36:00,
2013-02-04 17:41:00,21.5,16.6,31.53,North,360,0.0,0.0,81,0.00,,,0.00,Wunderground v.1.15,2013-02-04 22:41:00,
2013-02-04 17:46:00,21.5,16.6,31.53,North,360,0.0,0.0,81,0.00,,,0.00,Wunderground v.1.15,2013-02-04 22:46:00,
2013-02-04 17:51:00,21.4,16.5,31.53,North,360,0.0,0.0,81,0.00,,,0.00,Wunderground v.1.15,2013-02-04 22:51:00,
2013-02-04 17:56:00,21.4,16.5,31.53,North,360,0.0,0.0,81,0.00,,,0.00,Wunderground v.1.15,2013-02-04 22:56:00,
2013-02-04 18:01:00,21.4,16.5,31.53,North,360,0.0,0.0,81,0.00,,,0.00,Wunderground v.1.15,2013-02-04 23:01:00,
2013-02-04 18:06:00,21.3,16.7,31.53,North,360,0.0,0.0,82,0.00,,,0.00,Wunderground v.1.15,2013-02-04 23:06:00,
2013-02-04 18:11:00,21.2,16.6,31.53,North,360,0.0,0.0,82,0.00,,,0.00,Wunderground v.1.15,2013-02-04 23:11:00,
2013-02-04 18:16:00,21.1,16.5,31.53,North,360,0.0,0.0,82,0.00,,,0.00,Wunderground v.1.15,2013-02-04 23:16:00,
2013-02-04 18:21:00,21.0,16.4,31.53,North,360,0.0,0.0,82,0.00,,,0.00,Wunderground v.1.15,2013-02-04 23:21:00,
2013-02-04 18:26:00,20.9,16.3,31.53,North,360,0.0,0.0,82,0.00,,,0.00,Wunderground v.1.15,2013-02-04 23:26:00,
2013-02-04 18:31:00,20.7,16.4,31.53,North,360,0.0,0.0,83,0.00,,,0.00,Wunderground v.1.15,2013-02-04 23:31:00,
2013-02-04 18:41:00,20.5,16.2,31.53,North,360,0.0,0.0,83,0.00,,,0.00,Wunderground v.1.15,2013-02-04 23:41:00,
2013-02-04 18:46:00,20.4,16.1,31.53,North,360,0.0,0.0,83,0.00,,,0.00,Wunderground v.1.15,2013-02-04 23:46:00,
2013-02-04 18:51:00,20.3,16.0,31.53,North,360,1.0,1.0,83,0.00,,,0.00,Wunderground v.1.15,2013-02-04 23:51:00,
2013-02-04 18:56:00,20.2,15.9,31.53,North,360,1.0,1.0,83,0.00,,,0.00,Wunderground v.1.15,2013-02-04 23:56:00,
2013-02-04 19:01:00,20.1,16.0,31.53,North,360,1.0,1.0,84,0.00,,,0.00,Wunderground v.1.15,2013-02-05 00:01:00,
2013-02-04 19:06:00,20.0,15.9,31.81,North,360,1.0,2.0,84,0.00,,,0.00,Wunderground v.1.15,2013-02-05 00:06:00,
2013-02-04 19:11:00,19.8,15.7,20.68,North,360,1.0,1.0,84,0.00,,,0.00,Wunderground v.1.15,2013-02-05 00:11:00,
2013-02-04 19:21:00,19.7,15.6,20.68,North,360,1.0,1.0,84,0.00,,,0.00,Wunderground v.1.15,2013-02-05 00:21:00,
2013-02-04 19:26:00,19.7,15.9,20.68,North,360,1.0,1.0,85,0.00,,,0.00,Wunderground v.1.15,2013-02-05 00:26:00,
2013-02-04 19:31:00,19.7,15.9,20.68,North,360,1.0,1.0,85,0.00,,,0.00,Wunderground v.1.15,2013-02-05 00:31:00,
2013-02-04 19:36:00,19.6,15.8,20.68,North,360,0.0,1.0,85,0.00,,,0.00,Wunderground v.1.15,2013-02-05 00:36:00,
2013-02-04 19:41:00,19.6,15.8,20.68,North,360,0.0,0.0,85,0.00,,,0.00,Wunderground v.1.15,2013-02-05 00:41:00,
2013-02-04 19:46:00,19.5,15.7,20.70,North,360,0.0,0.0,85,0.00,,,0.00,Wunderground v.1.15,2013-02-05 00:46:00,
2013-02-04 19:51:00,19.5,15.7,20.70,North,360,0.0,0.0,85,0.00,,,0.00,Wunderground v.1.15,2013-02-05 00:51:00,
2013-02-04 19:56:00,19.5,15.7,20.70,North,360,0.0,0.0,85,0.00,,,0.00,Wunderground v.1.15,2013-02-05 00:56:00,
2013-02-04 20:01:00,19.5,16.0,20.70,North,360,0.0,0.0,86,0.00,,,0.00,Wunderground v.1.15,2013-02-05 01:01:00,
2013-02-04 20:06:00,19.5,16.0,31.53,North,360,0.0,0.0,86,0.00,,,0.00,Wunderground v.1.15,2013-02-05 01:06:00,
2013-02-04 20:16:00,19.4,15.9,31.53,North,360,0.0,0.0,86,0.00,,,0.00,Wunderground v.1.15,2013-02-05 01:16:00,
2013-02-04 20:21:00,19.4,15.9,20.68,North,360,0.0,0.0,86,0.00,,,0.00,Wunderground v.1.15,2013-02-05 01:21:00,
2013-02-04 20:26:00,19.4,18.0,30.27,North,360,0.0,0.0,94,0.00,,,0.00,Wunderground v.1.15,2013-02-05 01:26:00,
2013-02-04 20:31:00,19.4,15.9,30.27,North,360,0.0,0.0,86,0.00,,,0.00,Wunderground v.1.15,2013-02-05 01:31:00,
2013-02-04 20:36:00,19.3,15.8,30.27,North,360,0.0,0.0,86,0.00,,,0.00,Wunderground v.1.15,2013-02-05 01:36:00,
2013-02-04 20:46:00,19.3,15.8,30.27,North,360,0.0,0.0,86,0.00,,,0.00,Wunderground v.1.15,2013-02-05 01:46:00,
2013-02-04 20:51:00,19.3,15.8,30.27,North,360,0.0,0.0,86,0.00,,,0.00,Wunderground v.1.15,2013-02-05 01:51:00,
2013-02-04 20:56:00,19.2,15.7,30.27,North,360,0.0,0.0,86,0.00,,,0.00,Wunderground v.1.15,2013-02-05 01:56:00,
2013-02-04 21:01:00,19.2,16.0,30.27,North,360,0.0,0.0,87,0.00,,,0.00,Wunderground v.1.15,2013-02-05 02:01:00,
2013-02-04 21:06:00,19.2,15.7,30.27,North,360,0.0,0.0,86,0.00,,,0.00,Wunderground v.1.15,2013-02-05 02:06:00,
2013-02-04 21:11:00,19.2,15.7,30.27,North,360,0.0,0.0,86,0.00,,,0.00,Wunderground v.1.15,2013-02-05 02:11:00,
2013-02-04 21:21:00,19.1,15.9,30.27,North,360,0.0,0.0,87,0.00,,,0.00,Wunderground v.1.15,2013-02-05 02:21:00,
2013-02-04 21:26:00,19.1,15.9,30.27,North,360,0.0,0.0,87,0.00,,,0.00,Wunderground v.1.15,2013-02-05 02:26:00,
2013-02-04 21:31:00,19.0,15.8,30.27,North,360,0.0,0.0,87,0.00,,,0.00,Wunderground v.1.15,2013-02-05 02:31:00,
2013-02-04 21:36:00,19.0,15.8,30.27,North,360,0.0,0.0,87,0.00,,,0.00,Wunderground v.1.15,2013-02-05 02:36:00,
2013-02-04 21:41:00,19.0,15.8,30.27,North,360,0.0,0.0,87,0.00,,,0.00,Wunderground v.1.15,2013-02-05 02:41:00,
2013-02-04 21:51:00,19.1,15.9,30.27,North,360,0.0,0.0,87,0.00,,,0.00,Wunderground v.1.15,2013-02-05 02:51:00,
2013-02-04 21:56:00,19.1,15.9,30.27,North,360,0.0,0.0,87,0.00,,,0.00,Wunderground v.1.15,2013-02-05 02:56:00,
2013-02-04 22:01:00,19.0,15.8,30.27,North,360,0.0,0.0,87,0.00,,,0.00,Wunderground v.1.15,2013-02-05 03:01:00,
2013-02-04 22:06:00,18.9,15.7,30.27,North,360,0.0,1.0,87,0.00,,,0.00,Wunderground v.1.15,2013-02-05 03:06:00,
2013-02-04 22:11:00,18.9,15.7,30.27,North,360,0.0,0.0,87,0.00,,,0.00,Wunderground v.1.15,2013-02-05 03:11:00,
2013-02-04 22:16:00,18.8,15.6,30.27,North,360,0.0,0.0,87,0.00,,,0.00,Wunderground v.1.15,2013-02-05 03:16:00,
2013-02-04 22:26:00,18.8,15.6,20.68,North,360,0.0,0.0,87,0.00,,,0.00,Wunderground v.1.15,2013-02-05 03:26:00,
2013-02-04 22:31:00,18.7,15.5,30.27,North,360,0.0,0.0,87,0.00,,,0.00,Wunderground v.1.15,2013-02-05 03:31:00,
2013-02-04 22:36:00,18.6,15.4,30.27,North,360,0.0,0.0,87,0.00,,,0.00,Wunderground v.1.15,2013-02-05 03:36:00,
2013-02-04 22:41:00,18.6,15.4,30.27,North,360,0.0,0.0,87,0.00,,,0.00,Wunderground v.1.15,2013-02-05 03:41:00,
2013-02-04 22:46:00,18.5,15.3,30.27,North,360,0.0,0.0,87,0.00,,,0.00,Wunderground v.1.15,2013-02-05 03:46:00,
2013-02-04 22:56:00,18.5,15.3,30.27,North,360,0.0,0.0,87,0.00,,,0.00,Wunderground v.1.15,2013-02-05 03:56:00,
2013-02-04 23:01:00,18.5,15.5,30.27,North,360,0.0,0.0,88,0.00,,,0.00,Wunderground v.1.15,2013-02-05 04:01:00,
2013-02-04 23:11:00,18.5,15.5,30.27,North,360,0.0,0.0,88,0.00,,,0.00,Wunderground v.1.15,2013-02-05 04:11:00,
2013-02-04 23:16:00,18.4,15.4,30.27,North,360,0.0,0.0,88,0.00,,,0.00,Wunderground v.1.15,2013-02-05 04:16:00,
2013-02-04 23:21:00,18.4,15.4,30.27,North,360,0.0,0.0,88,0.00,,,0.00,Wunderground v.1.15,2013-02-05 04:21:00,
2013-02-04 23:31:00,18.3,15.3,30.27,North,360,0.0,0.0,88,0.00,,,0.00,Wunderground v.1.15,2013-02-05 04:31:00,
2013-02-04 23:36:00,18.2,15.2,30.27,North,360,0.0,0.0,88,0.00,,,0.00,Wunderground v.1.15,2013-02-05 04:36:00,
2013-02-04 23:41:00,18.2,15.2,30.95,North,360,0.0,0.0,88,0.00,,,0.00,Wunderground v.1.15,2013-02-05 04:41:00,
2013-02-04 23:46:00,18.1,15.1,30.27,North,360,0.0,0.0,88,0.00,,,0.00,Wunderground v.1.15,2013-02-05 04:46:00,
2013-02-04 23:51:00,18.1,15.1,30.27,North,360,0.0,0.0,88,0.00,,,0.00,Wunderground v.1.15,2013-02-05 04:51:00,